Terminal Aerodrome Forecast
Issued by NWS Blacksburg, VA

Home | Current Version | Previous Version | Text Only | Print | Product List | Glossary On
Versions: 1 2 3 4 5 6 7 8 9 10 11 12 13 14 15 16 17 18 19 20 21 22 23 24 25 26
722
FTUS41 KRNK 161137
TAFROA
TAF
KROA 161137Z 1612/1712 28009KT P6SM SCT050
     FM161500 29012G20KT P6SM FEW050
     FM162100 27006KT P6SM SKC
     FM170400 00000KT P6SM SCT250=

USA.gov is the U.S. government's official web portal to all federal, state and local government web resources and services.